createdAt,value
2018-03-29T00:02:06.138Z,73.27
2018-03-29T00:04:32.413Z,73.07
2018-03-29T00:06:58.758Z,72.99
2018-03-29T00:09:25.020Z,72.94
2018-03-29T00:11:51.266Z,73.17
2018-03-29T00:14:17.516Z,73.15
2018-03-29T00:16:43.803Z,73.05
2018-03-29T00:19:10.056Z,73.16
2018-03-29T00:21:36.337Z,73.37
2018-03-29T00:24:02.626Z,73.54
2018-03-29T00:26:28.905Z,73.97
2018-03-29T00:28:55.161Z,74.57
2018-03-29T00:31:21.417Z,74.14
2018-03-29T00:33:47.702Z,74.31
2018-03-29T00:36:13.954Z,73.94
2018-03-29T00:38:40.202Z,73.39
2018-03-29T00:41:06.500Z,73.27
2018-03-29T00:43:32.744Z,72.81
2018-03-29T00:45:59.180Z,72.63
2018-03-29T00:48:25.482Z,72.52
2018-03-29T00:50:51.758Z,72.51
2018-03-29T00:53:30.232Z,72.69
2018-03-29T00:55:56.493Z,72.67
2018-03-29T00:58:22.757Z,72.89
2018-03-29T01:00:49.066Z,72.93
2018-03-29T01:03:15.370Z,72.91
2018-03-29T01:05:41.644Z,72.93
2018-03-29T01:08:07.934Z,73.11
2018-03-29T01:10:34.192Z,73.19
2018-03-29T01:13:00.467Z,73.30
2018-03-29T01:15:26.726Z,73.14
2018-03-29T01:17:53.009Z,73.68
2018-03-29T01:20:19.319Z,73.41
2018-03-29T01:22:45.574Z,73.35
2018-03-29T01:25:11.844Z,73.40
2018-03-29T01:27:38.149Z,73.34
2018-03-29T01:30:04.448Z,72.96
2018-03-29T01:32:38.614Z,72.98
2018-03-29T01:35:04.929Z,72.60
2018-03-29T01:37:31.222Z,66.79
2018-03-29T01:39:57.528Z,64.87
2018-03-29T01:42:23.808Z,64.89
2018-03-29T01:44:50.066Z,64.43
2018-03-29T01:47:16.347Z,64.17
2018-03-29T01:49:42.604Z,65.15
2018-03-29T01:52:08.834Z,64.95
2018-03-29T01:54:35.137Z,63.68
2018-03-29T01:57:01.388Z,63.85
2018-03-29T01:59:27.652Z,63.58
2018-03-29T02:01:53.963Z,63.04
2018-03-29T02:04:20.241Z,63.07
2018-03-29T02:06:46.485Z,63.17
2018-03-29T02:09:12.796Z,62.70
2018-03-29T02:11:39.087Z,62.64
2018-03-29T02:14:05.327Z,61.84
2018-03-29T02:16:31.623Z,61.31
2018-03-29T02:18:57.897Z,61.42
2018-03-29T02:21:24.132Z,61.02
2018-03-29T02:23:50.414Z,60.40
2018-03-29T02:26:16.689Z,59.76
2018-03-29T02:28:42.975Z,59.71
2018-03-29T02:31:09.213Z,59.27
2018-03-29T02:33:35.462Z,59.29
2018-03-29T02:36:01.743Z,59.10
2018-03-29T02:38:28.013Z,58.50
2018-03-29T02:40:54.304Z,58.40
2018-03-29T02:43:20.559Z,58.32
2018-03-29T02:45:46.798Z,57.11
2018-03-29T02:48:13.068Z,57.95
2018-03-29T02:50:39.321Z,57.08
2018-03-29T02:53:06.485Z,57.45
2018-03-29T02:55:32.726Z,56.93
2018-03-29T02:57:59.060Z,57.32
2018-03-29T03:00:25.358Z,57.39
2018-03-29T03:02:51.608Z,58.15
2018-03-29T03:05:17.932Z,57.93
2018-03-29T03:07:44.194Z,58.49
2018-03-29T03:10:10.440Z,58.82
2018-03-29T03:12:36.743Z,59.28
2018-03-29T03:15:03.020Z,59.71
2018-03-29T03:17:29.288Z,60.50
2018-03-29T03:19:55.525Z,61.18
2018-03-29T03:22:21.773Z,61.95
2018-03-29T03:24:48.038Z,61.66
2018-03-29T03:27:14.260Z,61.35
2018-03-29T03:29:40.525Z,61.56
2018-03-29T03:32:06.862Z,61.92
2018-03-29T03:34:33.105Z,61.89
2018-03-29T03:36:59.854Z,61.84
2018-03-29T03:39:26.136Z,61.92
2018-03-29T03:41:52.404Z,62.05
2018-03-29T03:44:18.665Z,62.24
2018-03-29T03:46:44.946Z,61.36
2018-03-29T03:49:11.218Z,61.22
2018-03-29T03:51:37.458Z,61.45
2018-03-29T03:54:03.755Z,61.52
2018-03-29T03:56:30.001Z,61.47
2018-03-29T03:58:56.288Z,60.82
2018-03-29T04:01:22.565Z,60.54
2018-03-29T04:03:48.810Z,60.67
2018-03-29T04:06:15.081Z,60.98
2018-03-29T04:08:41.328Z,60.20
2018-03-29T04:11:07.597Z,60.43
2018-03-29T04:13:33.865Z,60.38
2018-03-29T04:16:00.168Z,60.18
2018-03-29T04:18:26.453Z,59.91
2018-03-29T04:20:52.701Z,59.78
2018-03-29T04:23:18.945Z,59.42
2018-03-29T04:25:45.245Z,59.13
2018-03-29T04:28:11.521Z,58.92
2018-03-29T04:30:37.786Z,59.02
2018-03-29T04:33:04.024Z,59.27
2018-03-29T04:35:30.265Z,58.89
2018-03-29T04:37:56.527Z,58.65
2018-03-29T04:40:22.778Z,59.04
2018-03-29T04:42:49.056Z,59.11
2018-03-29T04:45:15.289Z,58.65
2018-03-29T04:47:41.565Z,58.73
2018-03-29T04:50:07.841Z,57.47
2018-03-29T04:52:34.074Z,57.39
2018-03-29T04:55:00.313Z,57.36
2018-03-29T04:57:26.574Z,57.51
2018-03-29T04:59:52.810Z,58.16
2018-03-29T05:02:19.081Z,57.90
2018-03-29T05:04:45.369Z,57.93
2018-03-29T05:07:11.617Z,57.96
2018-03-29T05:09:37.983Z,57.85
2018-03-29T05:12:04.218Z,57.73
2018-03-29T05:14:30.470Z,57.52
2018-03-29T05:16:56.737Z,57.28
2018-03-29T05:19:22.980Z,57.24
2018-03-29T05:21:49.254Z,57.27
2018-03-29T05:24:15.695Z,56.22
2018-03-29T05:26:41.973Z,56.67
2018-03-29T05:29:08.252Z,56.14
2018-03-29T05:31:34.533Z,55.77
2018-03-29T05:34:00.827Z,55.20
2018-03-29T05:36:27.073Z,55.17
2018-03-29T05:38:53.331Z,54.48
2018-03-29T05:41:19.597Z,54.82
2018-03-29T05:43:45.839Z,54.48
2018-03-29T05:46:12.118Z,54.25
2018-03-29T05:48:38.360Z,54.26
2018-03-29T05:51:04.622Z,54.82
2018-03-29T05:53:30.909Z,55.82
2018-03-29T05:55:57.154Z,55.23
2018-03-29T05:58:23.433Z,56.07
2018-03-29T06:00:49.698Z,58.85
2018-03-29T06:03:15.950Z,60.14
2018-03-29T06:05:42.233Z,60.70
2018-03-29T06:08:08.478Z,59.93
2018-03-29T06:10:34.754Z,60.70
2018-03-29T06:13:01.010Z,60.08
2018-03-29T06:15:32.151Z,59.71
2018-03-29T06:18:00.317Z,58.62
2018-03-29T06:20:26.588Z,59.06
2018-03-29T06:22:52.858Z,59.07
2018-03-29T06:25:19.101Z,58.55
2018-03-29T06:27:45.377Z,57.90
2018-03-29T06:30:11.657Z,57.19
2018-03-29T06:32:37.900Z,57.13
2018-03-29T06:35:04.177Z,56.86
2018-03-29T06:37:30.424Z,56.89
2018-03-29T06:39:56.702Z,55.84
2018-03-29T06:42:22.961Z,55.37
2018-03-29T06:44:49.201Z,55.81
2018-03-29T06:47:15.457Z,55.44
2018-03-29T06:49:41.701Z,54.50
2018-03-29T06:52:07.966Z,54.76
2018-03-29T06:54:34.204Z,54.58
2018-03-29T06:57:00.453Z,54.30
2018-03-29T06:59:26.744Z,53.67
2018-03-29T07:01:52.997Z,52.67
2018-03-29T07:04:19.289Z,52.76
2018-03-29T07:06:45.560Z,52.16
2018-03-29T07:09:11.861Z,51.31
2018-03-29T07:11:38.162Z,51.56
2018-03-29T07:14:04.421Z,51.42
2018-03-29T07:16:30.705Z,50.46
2018-03-29T07:18:56.953Z,50.25
2018-03-29T07:21:23.209Z,49.35
2018-03-29T07:23:49.481Z,48.48
2018-03-29T07:26:15.755Z,47.99
2018-03-29T07:28:42.043Z,47.57
2018-03-29T07:31:08.294Z,48.44
2018-03-29T07:33:34.530Z,48.35
2018-03-29T07:36:00.792Z,47.88
2018-03-29T07:38:27.085Z,46.74
2018-03-29T07:40:53.362Z,47.83
2018-03-29T07:43:19.616Z,48.01
2018-03-29T07:45:45.863Z,47.77
2018-03-29T07:48:12.141Z,47.39
2018-03-29T07:50:38.407Z,46.96
2018-03-29T07:53:04.693Z,46.50
2018-03-29T07:55:30.994Z,45.84
2018-03-29T07:57:57.281Z,45.88
2018-03-29T08:00:23.543Z,46.14
2018-03-29T08:02:49.789Z,44.30
2018-03-29T08:05:16.067Z,44.57
2018-03-29T08:07:42.309Z,44.26
2018-03-29T08:10:08.557Z,44.42
2018-03-29T08:12:34.813Z,44.13
2018-03-29T08:15:01.077Z,43.24
2018-03-29T08:17:27.382Z,42.08
2018-03-29T08:19:53.625Z,41.70
2018-03-29T08:22:19.905Z,41.42
2018-03-29T08:24:46.162Z,41.06
2018-03-29T08:27:12.422Z,40.88
2018-03-29T08:29:38.697Z,40.06
2018-03-29T08:32:04.977Z,41.39
2018-03-29T08:34:31.242Z,39.93
2018-03-29T08:36:57.537Z,40.41
2018-03-29T08:39:23.791Z,40.83
2018-03-29T08:41:50.053Z,42.01
2018-03-29T08:44:16.349Z,41.39
2018-03-29T08:46:42.641Z,39.47
2018-03-29T08:49:08.936Z,35.87
2018-03-29T08:51:35.233Z,34.93
2018-03-29T08:54:01.493Z,33.45
2018-03-29T08:56:27.776Z,32.32
2018-03-29T08:58:54.080Z,32.75
2018-03-29T09:01:20.339Z,34.38
2018-03-29T09:03:46.697Z,34.65
2018-03-29T09:06:12.972Z,36.31
2018-03-29T09:08:39.240Z,37.27
2018-03-29T09:11:05.530Z,38.18
2018-03-29T09:13:31.805Z,36.95
2018-03-29T09:15:58.102Z,37.57
2018-03-29T09:18:24.362Z,37.58
2018-03-29T09:20:50.610Z,34.97
2018-03-29T09:23:16.890Z,35.04
2018-03-29T09:25:43.165Z,34.44
2018-03-29T09:28:09.428Z,35.33
2018-03-29T09:30:35.692Z,35.82
2018-03-29T09:33:01.974Z,36.64
2018-03-29T09:35:28.248Z,36.90
2018-03-29T09:37:54.528Z,34.93
2018-03-29T09:40:20.804Z,35.59
2018-03-29T09:42:47.053Z,35.81
2018-03-29T09:45:13.291Z,36.64
2018-03-29T09:47:39.569Z,37.05
2018-03-29T09:50:05.827Z,36.71
2018-03-29T09:52:32.137Z,34.82
2018-03-29T09:54:58.380Z,32.29
2018-03-29T09:57:24.637Z,30.90
2018-03-29T09:59:50.920Z,33.07
2018-03-29T10:02:18.154Z,34.01
2018-03-29T10:04:44.493Z,35.34
2018-03-29T10:07:16.780Z,35.62
2018-03-29T10:09:43.066Z,36.25
2018-03-29T10:12:09.384Z,36.02
2018-03-29T10:14:35.601Z,35.63
2018-03-29T10:17:01.885Z,35.62
2018-03-29T10:19:28.137Z,36.26
2018-03-29T10:21:54.424Z,37.10
2018-03-29T10:24:20.685Z,37.75
2018-03-29T10:26:46.936Z,38.54
2018-03-29T10:29:13.213Z,37.48
2018-03-29T10:31:39.461Z,37.40
2018-03-29T10:34:05.780Z,38.63
2018-03-29T10:36:32.020Z,38.42
2018-03-29T10:38:58.270Z,38.06
2018-03-29T10:41:24.524Z,37.20
2018-03-29T10:43:50.769Z,37.35
2018-03-29T10:46:17.071Z,36.82
2018-03-29T10:48:43.325Z,36.64
2018-03-29T10:51:09.581Z,37.06
2018-03-29T10:53:35.877Z,37.32
2018-03-29T10:56:02.137Z,37.08
2018-03-29T10:58:28.429Z,36.79
2018-03-29T11:00:54.680Z,35.71
2018-03-29T11:03:20.938Z,35.21
2018-03-29T11:05:47.202Z,34.26
2018-03-29T11:08:13.472Z,33.01
2018-03-29T11:10:39.755Z,32.14
2018-03-29T11:13:06.035Z,31.25
2018-03-29T11:15:32.322Z,31.26
2018-03-29T11:17:58.614Z,31.27
2018-03-29T11:20:24.876Z,31.64
2018-03-29T11:22:51.158Z,30.94
2018-03-29T11:25:17.436Z,32.04
2018-03-29T11:27:43.701Z,32.47
2018-03-29T11:30:09.975Z,31.74
2018-03-29T11:32:36.236Z,33.19
2018-03-29T11:35:02.568Z,33.85
2018-03-29T11:37:28.805Z,34.20
2018-03-29T11:39:55.067Z,35.39
2018-03-29T11:42:21.341Z,37.02
2018-03-29T11:44:47.597Z,35.67
2018-03-29T11:47:13.901Z,35.68
2018-03-29T11:49:40.148Z,36.49
2018-03-29T11:52:06.404Z,35.89
2018-03-29T11:54:32.700Z,37.11
2018-03-29T11:56:58.952Z,37.72
2018-03-29T11:59:25.216Z,37.48
2018-03-29T12:01:51.460Z,37.67
2018-03-29T12:04:17.708Z,37.39
2018-03-29T12:06:44.003Z,36.87
2018-03-29T12:09:10.237Z,36.69
2018-03-29T12:11:36.508Z,37.07
2018-03-29T12:14:02.793Z,36.39
2018-03-29T12:16:29.033Z,36.95
2018-03-29T12:18:55.325Z,37.22
2018-03-29T12:21:21.789Z,37.61
2018-03-29T12:23:48.172Z,37.91
2018-03-29T12:26:14.414Z,37.87
2018-03-29T12:28:40.662Z,37.65
2018-03-29T12:31:06.935Z,36.80
2018-03-29T12:33:33.201Z,36.42
2018-03-29T12:35:59.474Z,36.83
2018-03-29T12:38:25.713Z,36.96
2018-03-29T12:40:51.961Z,36.30
2018-03-29T12:43:18.234Z,36.88
2018-03-29T12:45:44.493Z,36.82
2018-03-29T12:48:10.735Z,36.70
2018-03-29T12:50:37.028Z,36.76
2018-03-29T12:53:03.271Z,36.56
2018-03-29T12:55:42.730Z,36.78
2018-03-29T12:58:10.664Z,36.47
2018-03-29T13:00:36.962Z,36.57
2018-03-29T13:03:03.261Z,36.49
2018-03-29T13:05:29.533Z,36.44
2018-03-29T13:07:55.824Z,36.94
2018-03-29T13:10:22.097Z,37.12
2018-03-29T13:12:48.348Z,37.26
2018-03-29T13:15:14.618Z,36.43
2018-03-29T13:17:40.878Z,36.79
2018-03-29T13:20:07.141Z,36.67
2018-03-29T13:22:33.560Z,37.06
2018-03-29T13:24:59.845Z,37.16
2018-03-29T13:27:26.155Z,37.88
2018-03-29T13:29:52.392Z,38.52
2018-03-29T13:32:18.637Z,39.10
2018-03-29T13:34:44.917Z,38.96
2018-03-29T13:37:11.170Z,39.57
2018-03-29T13:39:37.441Z,39.59
2018-03-29T13:42:03.690Z,39.26
2018-03-29T13:44:29.993Z,38.38
2018-03-29T13:46:56.259Z,38.51
2018-03-29T13:49:22.539Z,38.84
2018-03-29T13:51:48.836Z,38.51
2018-03-29T13:54:15.081Z,37.89
2018-03-29T13:56:41.354Z,37.93
2018-03-29T13:59:07.620Z,37.62
2018-03-29T14:01:33.873Z,37.28
2018-03-29T14:04:00.164Z,37.28
2018-03-29T14:06:26.437Z,37.50
2018-03-29T14:08:52.673Z,37.21
2018-03-29T14:11:18.959Z,36.70
2018-03-29T14:13:45.204Z,36.21
2018-03-29T14:16:11.492Z,35.85
2018-03-29T14:18:37.740Z,35.60
2018-03-29T14:21:03.997Z,33.58
2018-03-29T14:23:30.314Z,30.88
2018-03-29T14:25:56.569Z,26.69
2018-03-29T14:28:22.853Z,23.52
2018-03-29T14:30:49.101Z,22.42
2018-03-29T14:33:15.352Z,23.18
2018-03-29T14:35:42.537Z,22.67
2018-03-29T14:38:08.761Z,22.46
2018-03-29T14:40:35.068Z,21.12
2018-03-29T14:43:01.342Z,20.27
2018-03-29T14:45:27.613Z,20.18
2018-03-29T14:47:53.909Z,22.22
2018-03-29T14:50:20.167Z,20.77
2018-03-29T14:52:46.452Z,18.99
2018-03-29T14:55:12.740Z,19.33
2018-03-29T14:57:39.017Z,19.93
2018-03-29T15:00:05.331Z,19.25
2018-03-29T15:02:31.597Z,19.92
2018-03-29T15:04:57.904Z,21.01
2018-03-29T15:07:24.192Z,21.10
2018-03-29T15:09:50.452Z,20.71
2018-03-29T15:12:16.734Z,20.75
2018-03-29T15:14:43.000Z,20.21
2018-03-29T15:17:09.281Z,20.02
2018-03-29T15:19:35.538Z,21.63
2018-03-29T15:22:01.798Z,22.45
2018-03-29T15:24:28.082Z,23.43
2018-03-29T15:26:54.340Z,25.75
2018-03-29T15:29:20.620Z,28.83
2018-03-29T15:31:46.870Z,30.70
2018-03-29T15:34:13.144Z,29.47
2018-03-29T15:36:39.565Z,29.62
2018-03-29T15:39:05.924Z,31.37
2018-03-29T15:41:32.179Z,32.44
2018-03-29T15:43:58.504Z,33.32
2018-03-29T15:46:24.785Z,33.84
2018-03-29T15:48:51.076Z,33.97
2018-03-29T15:51:17.368Z,34.34
2018-03-29T15:53:43.645Z,34.93
2018-03-29T15:56:09.884Z,35.61
2018-03-29T15:58:36.120Z,36.27
2018-03-29T16:01:02.494Z,36.55
2018-03-29T16:03:28.778Z,35.17
2018-03-29T16:05:55.068Z,33.20
2018-03-29T16:08:21.323Z,32.29
2018-03-29T16:10:47.584Z,32.57
2018-03-29T16:13:13.872Z,32.79
2018-03-29T16:15:40.132Z,33.32
2018-03-29T16:18:06.489Z,33.58
2018-03-29T16:20:32.752Z,34.21
2018-03-29T16:22:59.013Z,34.70
2018-03-29T16:25:25.318Z,35.48
2018-03-29T16:27:51.639Z,35.82
2018-03-29T16:30:17.933Z,36.90
2018-03-29T16:32:44.181Z,37.58
2018-03-29T16:35:10.464Z,37.61
2018-03-29T16:37:36.712Z,37.41
2018-03-29T16:40:02.989Z,37.93
2018-03-29T16:42:29.310Z,38.60
2018-03-29T16:44:55.560Z,38.66
2018-03-29T16:47:21.884Z,39.02
2018-03-29T16:49:48.198Z,38.74
2018-03-29T16:52:14.445Z,38.87
2018-03-29T16:54:40.704Z,39.18
2018-03-29T16:57:06.985Z,39.20
2018-03-29T16:59:34.422Z,39.51
2018-03-29T17:02:00.708Z,39.38
2018-03-29T17:04:27.056Z,39.72
2018-03-29T17:06:53.337Z,40.10
2018-03-29T17:09:19.607Z,40.27
2018-03-29T17:11:45.884Z,40.54
2018-03-29T17:14:12.280Z,40.90
2018-03-29T17:16:38.540Z,40.84
2018-03-29T17:19:04.789Z,40.90
2018-03-29T17:21:31.133Z,40.93
2018-03-29T17:23:57.382Z,41.16
2018-03-29T17:26:23.620Z,41.58
2018-03-29T17:28:49.925Z,41.63
2018-03-29T17:31:16.188Z,41.54
2018-03-29T17:33:42.677Z,41.93
2018-03-29T17:36:08.949Z,41.99
2018-03-29T17:38:35.233Z,42.14
2018-03-29T17:41:01.500Z,41.96
2018-03-29T17:43:27.788Z,41.65
2018-03-29T17:45:54.097Z,41.32
2018-03-29T17:48:20.523Z,41.43
2018-03-29T17:50:46.780Z,41.59
2018-03-29T17:53:13.043Z,41.80
2018-03-29T17:55:39.317Z,42.34
2018-03-29T17:58:05.593Z,42.49
2018-03-29T18:00:31.849Z,42.95
2018-03-29T18:02:58.193Z,43.04
2018-03-29T18:05:24.529Z,42.94
2018-03-29T18:07:50.784Z,42.69
2018-03-29T18:10:17.191Z,42.56
2018-03-29T18:12:43.453Z,42.58
2018-03-29T18:15:09.702Z,42.55
2018-03-29T18:17:36.004Z,42.35
2018-03-29T18:20:02.313Z,42.19
2018-03-29T18:22:28.589Z,42.04
2018-03-29T18:24:54.890Z,42.00
2018-03-29T18:27:21.128Z,42.17
2018-03-29T18:29:47.401Z,42.17
2018-03-29T18:32:13.705Z,42.19
2018-03-29T18:34:41.021Z,42.50
2018-03-29T18:37:07.265Z,45.91
2018-03-29T18:39:33.512Z,49.39
2018-03-29T18:41:59.805Z,50.83
2018-03-29T18:44:26.055Z,53.04
2018-03-29T18:46:52.342Z,55.06
2018-03-29T18:49:18.579Z,55.74
2018-03-29T18:51:44.842Z,56.61
2018-03-29T18:54:11.139Z,56.94
2018-03-29T18:56:37.444Z,57.36
2018-03-29T18:59:03.840Z,57.49
2018-03-29T19:01:30.149Z,57.47
2018-03-29T19:03:56.401Z,57.79
2018-03-29T19:06:22.676Z,57.76
2018-03-29T19:08:48.920Z,57.42
2018-03-29T19:11:15.209Z,58.19
2018-03-29T19:13:41.460Z,58.40
2018-03-29T19:16:08.014Z,58.64
2018-03-29T19:18:34.309Z,58.24
2018-03-29T19:21:00.553Z,58.30
2018-03-29T19:23:26.845Z,58.15
2018-03-29T19:25:53.805Z,58.31
2018-03-29T19:28:20.087Z,57.92
2018-03-29T19:30:46.374Z,57.58
2018-03-29T19:33:12.624Z,57.92
2018-03-29T19:35:38.950Z,58.00
2018-03-29T19:38:05.200Z,57.98
2018-03-29T19:40:31.477Z,57.84
2018-03-29T19:42:57.774Z,57.70
2018-03-29T19:45:24.028Z,57.30
2018-03-29T19:47:50.294Z,57.60
2018-03-29T19:50:16.576Z,57.57
2018-03-29T19:52:42.886Z,57.46
2018-03-29T19:55:09.149Z,57.79
2018-03-29T19:57:35.410Z,58.18
2018-03-29T20:00:01.693Z,58.06
2018-03-29T20:02:27.965Z,58.42
2018-03-29T20:04:54.290Z,57.93
2018-03-29T20:07:20.661Z,57.73
2018-03-29T20:09:46.919Z,57.66
2018-03-29T20:12:13.217Z,57.73
2018-03-29T20:14:39.464Z,58.30
2018-03-29T20:17:05.712Z,58.17
2018-03-29T20:19:32.018Z,58.68
2018-03-29T20:21:58.309Z,59.08
2018-03-29T20:24:24.613Z,59.49
2018-03-29T20:26:50.864Z,59.61
2018-03-29T20:29:17.437Z,59.78
2018-03-29T20:31:43.743Z,60.57
2018-03-29T20:34:09.988Z,60.78
2018-03-29T20:36:36.281Z,60.96
2018-03-29T20:39:02.645Z,61.20
2018-03-29T20:41:28.893Z,61.46
2018-03-29T20:43:55.390Z,61.55
2018-03-29T20:46:21.625Z,61.32
2018-03-29T20:48:47.925Z,61.08
2018-03-29T20:51:14.189Z,60.59
2018-03-29T20:53:40.432Z,60.41
2018-03-29T20:56:06.664Z,60.50
2018-03-29T20:58:32.981Z,60.26
2018-03-29T21:00:59.228Z,60.80
2018-03-29T21:03:25.504Z,60.96
2018-03-29T21:05:51.752Z,61.13
2018-03-29T21:08:17.996Z,61.23
2018-03-29T21:10:44.279Z,61.12
2018-03-29T21:13:10.510Z,62.10
2018-03-29T21:15:36.809Z,61.71
2018-03-29T21:18:03.102Z,61.55
2018-03-29T21:20:29.394Z,61.39
2018-03-29T21:22:55.645Z,61.76
2018-03-29T21:25:21.976Z,61.90
2018-03-29T21:27:48.285Z,61.83
2018-03-29T21:30:14.536Z,61.74
2018-03-29T21:32:40.849Z,61.88
2018-03-29T21:35:07.095Z,62.09
2018-03-29T21:37:33.333Z,62.48
2018-03-29T21:39:59.793Z,62.69
2018-03-29T21:42:25.948Z,62.29
2018-03-29T21:44:52.181Z,62.29
2018-03-29T21:47:18.445Z,62.25
2018-03-29T21:49:44.713Z,62.12
2018-03-29T21:52:11.038Z,62.20
2018-03-29T21:54:37.294Z,62.04
2018-03-29T21:57:03.565Z,61.94
2018-03-29T21:59:29.828Z,61.75
2018-03-29T22:01:56.073Z,61.64
2018-03-29T22:04:22.365Z,61.78
2018-03-29T22:06:48.643Z,61.71
2018-03-29T22:09:14.902Z,61.98
2018-03-29T22:11:41.180Z,61.67
2018-03-29T22:14:07.441Z,61.61
2018-03-29T22:16:33.753Z,61.56
2018-03-29T22:19:00.004Z,61.44
2018-03-29T22:21:26.249Z,61.53
2018-03-29T22:23:52.510Z,61.62
2018-03-29T22:26:18.784Z,61.55
2018-03-29T22:28:45.104Z,61.66
2018-03-29T22:31:11.341Z,61.72
2018-03-29T22:33:37.650Z,61.36
2018-03-29T22:36:03.957Z,61.46
2018-03-29T22:38:30.199Z,61.25
2018-03-29T22:40:56.482Z,61.06
2018-03-29T22:43:22.724Z,60.97
2018-03-29T22:45:48.969Z,60.86
2018-03-29T22:48:15.273Z,60.39
2018-03-29T22:50:41.533Z,59.96
2018-03-29T22:53:07.841Z,60.60
2018-03-29T22:55:34.089Z,60.43
2018-03-29T22:58:00.344Z,59.72
2018-03-29T23:00:35.421Z,58.60
2018-03-29T23:03:01.698Z,58.20
2018-03-29T23:05:27.997Z,58.18
2018-03-29T23:07:54.305Z,58.18
2018-03-29T23:10:20.593Z,57.87
2018-03-29T23:12:46.913Z,57.67
2018-03-29T23:15:13.197Z,57.72
2018-03-29T23:17:39.488Z,57.54
2018-03-29T23:20:05.748Z,57.28
2018-03-29T23:22:32.083Z,56.87
2018-03-29T23:24:58.364Z,56.62
2018-03-29T23:27:24.644Z,56.14
2018-03-29T23:29:50.912Z,56.27
2018-03-29T23:32:17.201Z,56.49
2018-03-29T23:34:43.460Z,56.35
2018-03-29T23:37:09.718Z,55.94
2018-03-29T23:39:35.980Z,55.91
2018-03-29T23:42:02.249Z,55.89
2018-03-29T23:44:28.528Z,56.07
2018-03-29T23:46:54.841Z,56.34
2018-03-29T23:49:21.109Z,56.19
2018-03-29T23:51:47.369Z,56.16
2018-03-29T23:54:13.695Z,56.22
2018-03-29T23:56:39.933Z,56.39
2018-03-29T23:59:06.175Z,56.50
